• Join FlightAware (Why Join?)
  • Login
  • US Flag 
08:35AM EDT


 

Airport Tracker/Info


-or-


 

Live Flight TrackerFlight Track Log ✈ SWA3625 ✈ 27-Dec-2013 ✈ KHOU - KPNS

Flight Track Log - Related Links

Times and Time Zones

All times are in EST time to prevent confusion due to time zone crossing. See the SWA3625 flight status page for this flight to view local times or setup timezone preferences in your user account.

Time Position Orientation Groundspeed Altitude Reporting Facility
EST Latitude Longitude Course Direction KTS MPH feet Rate Location/Type
04:57PM 29.5956 -95.2419 152° Southeast 187 215 2,400  Level Houston Center
04:57PM 29.5708 -95.2272 153° Southeast 208 239 4,100 2,400 Climbing Houston Center
04:58PM 29.5714 -95.1917 89° East 233 268 4,900 2,340 Climbing Houston Center
04:58PM 29.5783 -95.1494 79° East 268 308 6,500 3,720 Climbing Houston Center
04:59PM 29.5861 -95.0950 81° East 271 312 8,800 3,120 Climbing Houston Center
05:00PM 29.6033 -95.0031 78° East 295 339 11,800 3,000 Climbing Houston Center
05:01PM 29.6222 -94.8950 79° East 339 390 15,100 2,820 Climbing Houston Center
05:02PM 29.6442 -94.7811 77° East 362 417 17,700 2,340 Climbing Houston Center
05:03PM 29.6675 -94.6583 78° East 389 448 20,000 2,460 Climbing Houston Center
05:04PM 29.6983 -94.4983 77° East 426 490 22,800 2,460 Climbing Houston Center
05:05PM 29.7236 -94.3603 78° East 440 506 25,200 2,220 Climbing Houston Center
05:06PM 29.7497 -94.2181 78° East 453 521 27,400 2,040 Climbing Houston Center
05:07PM 29.7806 -94.0519 78° East 464 534 29,500 1,740 Climbing Houston Center
05:08PM 29.8078 -93.9022 78° East 479 551 31,100 1,620 Climbing Houston Center
05:09PM 29.8344 -93.7500 79° East 488 562 32,900 1,620 Climbing Houston Center
05:10PM 29.8622 -93.5981 78° East 489 563 34,500 1,380 Climbing Houston Center
05:11PM 29.8894 -93.4442 78° East 493 567 35,800 1,200 Climbing Houston Center
05:12PM 29.9222 -93.2558 79° East 501 577 37,000 540 Climbing Houston Center
05:14PM 29.9497 -93.1025 78° East 497 572 37,000  Level Houston Center
05:15PM 29.9758 -92.9500 79° East 490 564 37,000 360 Level Houston Center
05:16PM 30.0019 -92.7989 79° East 486 559 37,800 600 Climbing Houston Center
05:17PM 30.0275 -92.6456 79° East 488 562 38,300 540 Climbing Houston Center
05:18PM 30.0619 -92.4539 78° East 506 582 39,000 300 Climbing Houston Center
05:19PM 30.0878 -92.2947 79° East 507 583 39,000  Level Houston Center
05:20PM 30.1153 -92.1358 79° East 506 582 39,000  Level Houston Center
05:21PM 30.1403 -91.9789 80° East 502 578 39,000  Level Houston Center
05:22PM 30.1658 -91.8208 79° East 502 578 39,000 -480 Level Houston Center
05:23PM 30.1936 -91.6519 79° East 507 583 38,100 -900 Descending Houston Center
05:24PM 30.2214 -91.4933 79° East 505 581 37,200 -1,020 Descending Houston Center
05:25PM 30.2500 -91.3047 80° East 498 573 36,000 -1,020 Descending Houston Center
05:26PM 30.2761 -91.1453 79° East 502 578 35,100 -960 Descending Houston Center
05:27PM 30.3008 -90.9833 80° East 512 589 34,100 -1,020 Descending Houston Center
05:28PM 30.3264 -90.8244 79° East 506 582 33,100 -540 Descending Houston Center
05:29PM 30.3517 -90.6669 79° East 498 573 33,000 -60 Descending Houston Center
05:30PM 30.3750 -90.5103 80° East 495 570 33,000 -300 Level Houston Center
05:31PM 30.4047 -90.3206 80° East 500 575 32,500 -720 Descending Houston Center
05:32PM 30.4158 -90.1628 85° East 493 567 31,600 -960 Descending Houston Center
05:33PM 30.4147 -90.0061 90° East 487 560 30,600 -1,020 Descending Houston Center
05:34PM 30.4156 -89.8486 90° East 483 556 29,600 -1,020 Descending Houston Center
05:35PM 30.4164 -89.6864 90° East 480 552 28,500 -1,020 Descending Houston Center
05:36PM 30.4150 -89.5358 91° East 469 540 27,500 -1,020 Descending Houston Center
05:37PM 30.4142 -89.3911 90° East 454 522 26,500 -1,020 Descending Houston Center
05:38PM 30.4136 -89.2486 90° East 447 514 25,400 -1,140 Descending Houston Center
05:39PM 30.4125 -89.0792 90° East 438 504 24,200 -1,080 Descending Houston Center
05:40PM 30.4114 -88.9442 91° East 424 488 23,200 -960 Descending Houston Center
05:41PM 30.4103 -88.8014 90° East 420 483 22,200 -960 Descending Houston Center
05:43PM 30.4092 -88.6717 91° East 406 467 21,200 -1,020 Descending Houston Center
05:44PM 30.4078 -88.5458 91° East 394 453 20,200 -1,020 Descending Houston Center
05:45PM 30.4067 -88.4206 91° East 392 451 19,200 -1,200 Descending Houston Center
05:46PM 30.4039 -88.2961 91° East 388 447 17,800 -2,040 Descending Houston Center
05:47PM 30.4039 -88.1508 90° East 379 436 15,100 -2,280 Descending Houston Center
05:48PM 30.4006 -88.0314 92° East 372 428 13,100 -1,920 Descending Houston Center
05:49PM 30.4000 -87.9156 90° East 361 415 11,200 -1,440 Descending Houston Center
05:50PM 30.3850 -87.8108 99° East 327 376 10,100 -540 Descending Houston Center
05:51PM 30.3572 -87.7094 108° East 329 379 10,100 -300 Level Houston Center
05:52PM 30.3275 -87.6039 108° East 289 333 9,600 -960 Descending Houston Center
05:52PM 30.3089 -87.5481 111° Southeast 290 334 8,500 -1,380 Descending Jacksonville Center
05:54PM 30.3100 -87.4589 89° East 284 327 7,300 -1,380 Descending Jacksonville Center
05:55PM 30.3153 -87.3656 86° East 276 318 5,800 -1,380 Descending Jacksonville Center
05:56PM 30.3186 -87.2742 88° East 267 307 4,600 -1,440 Descending Jacksonville Center
05:57PM 30.3253 -87.1975 84° East 224 258 3,000 -1,200 Descending Jacksonville Center
05:58PM 30.3600 -87.1631 41° Northeast 181 208 2,100 -900 Descending Jacksonville Center
05:59PM 30.4075 -87.1747 348° North 154 177 1,200 -840 Descending Jacksonville Center
06:00PM 30.4425 -87.1858 345° North 115 132 400 -720 Descending Jacksonville Center